sensor_id;sensor_type;location;lat;lon;timestamp;pressure;altitude;pressure_sealevel;temperature;humidity
44457;BME280;30159;49.316;8.558;2024-03-02T00:01:30;99240.50;;;6.88;100.00
44457;BME280;30159;49.316;8.558;2024-03-02T00:03:56;99235.22;;;6.78;100.00
44457;BME280;30159;49.316;8.558;2024-03-02T00:06:23;99234.69;;;6.81;100.00
44457;BME280;30159;49.316;8.558;2024-03-02T00:08:57;99230.91;;;6.82;100.00
44457;BME280;30159;49.316;8.558;2024-03-02T00:11:25;99219.84;;;6.65;100.00
44457;BME280;30159;49.316;8.558;2024-03-02T00:13:53;99223.72;;;6.78;100.00
44457;BME280;30159;49.316;8.558;2024-03-02T00:16:19;99223.97;;;6.81;100.00
44457;BME280;30159;49.316;8.558;2024-03-02T00:18:46;99213.47;;;6.85;100.00
44457;BME280;30159;49.316;8.558;2024-03-02T00:21:13;99215.06;;;6.86;100.00
44457;BME280;30159;49.316;8.558;2024-03-02T00:23:42;99206.56;;;6.79;100.00
44457;BME280;30159;49.316;8.558;2024-03-02T00:26:11;99216.31;;;6.93;100.00
44457;BME280;30159;49.316;8.558;2024-03-02T00:28:40;99198.69;;;6.87;100.00
44457;BME280;30159;49.316;8.558;2024-03-02T00:31:10;99211.22;;;6.97;100.00
44457;BME280;30159;49.316;8.558;2024-03-02T00:33:40;99219.53;;;6.95;100.00
44457;BME280;30159;49.316;8.558;2024-03-02T00:36:09;99208.28;;;6.93;100.00
44457;BME280;30159;49.316;8.558;2024-03-02T00:38:44;99221.41;;;6.95;100.00
44457;BME280;30159;49.316;8.558;2024-03-02T00:41:15;99221.75;;;6.88;100.00
44457;BME280;30159;49.316;8.558;2024-03-02T00:43:46;99227.97;;;6.84;100.00
44457;BME280;30159;49.316;8.558;2024-03-02T00:46:16;99227.44;;;6.82;100.00
44457;BME280;30159;49.316;8.558;2024-03-02T00:48:48;99224.97;;;6.85;100.00
44457;BME280;30159;49.316;8.558;2024-03-02T00:51:17;99221.88;;;6.73;100.00
44457;BME280;30159;49.316;8.558;2024-03-02T00:53:44;99225.09;;;6.75;100.00
44457;BME280;30159;49.316;8.558;2024-03-02T00:56:11;99225.09;;;6.75;100.00
44457;BME280;30159;49.316;8.558;2024-03-02T00:58:38;99230.44;;;6.75;100.00
44457;BME280;30159;49.316;8.558;2024-03-02T01:01:06;99227.06;;;6.64;100.00
44457;BME280;30159;49.316;8.558;2024-03-02T01:03:33;99226.56;;;6.62;100.00
44457;BME280;30159;49.316;8.558;2024-03-02T01:06:00;99237.03;;;6.59;100.00
44457;BME280;30159;49.316;8.558;2024-03-02T01:08:27;99241.91;;;6.51;100.00
44457;BME280;30159;49.316;8.558;2024-03-02T01:10:54;99245.94;;;6.49;100.00
44457;BME280;30159;49.316;8.558;2024-03-02T01:13:21;99247.84;;;6.43;100.00
44457;BME280;30159;49.316;8.558;2024-03-02T01:15:48;99254.81;;;6.44;100.00
44457;BME280;30159;49.316;8.558;2024-03-02T01:18:16;99248.56;;;6.25;100.00
44457;BME280;30159;49.316;8.558;2024-03-02T01:20:43;99247.72;;;6.29;100.00
44457;BME280;30159;49.316;8.558;2024-03-02T01:23:09;99247.50;;;6.21;100.00
44457;BME280;30159;49.316;8.558;2024-03-02T01:25:36;99241.34;;;6.20;100.00
44457;BME280;30159;49.316;8.558;2024-03-02T01:28:03;99243.75;;;6.22;100.00
44457;BME280;30159;49.316;8.558;2024-03-02T01:30:30;99244.00;;;6.25;100.00
44457;BME280;30159;49.316;8.558;2024-03-02T01:32:57;99229.81;;;6.20;100.00
44457;BME280;30159;49.316;8.558;2024-03-02T01:35:25;99236.31;;;6.14;100.00
44457;BME280;30159;49.316;8.558;2024-03-02T01:37:53;99227.75;;;6.11;100.00
44457;BME280;30159;49.316;8.558;2024-03-02T01:40:19;99228.31;;;6.08;100.00
44457;BME280;30159;49.316;8.558;2024-03-02T01:42:46;99221.09;;;6.09;100.00
44457;BME280;30159;49.316;8.558;2024-03-02T01:45:13;99223.50;;;6.05;100.00
44457;BME280;30159;49.316;8.558;2024-03-02T01:47:39;99220.56;;;6.07;100.00
44457;BME280;30159;49.316;8.558;2024-03-02T01:50:07;99212.28;;;6.08;100.00
44457;BME280;30159;49.316;8.558;2024-03-02T01:52:35;99214.91;;;6.14;100.00
44457;BME280;30159;49.316;8.558;2024-03-02T01:55:02;99199.72;;;6.04;100.00
44457;BME280;30159;49.316;8.558;2024-03-02T01:57:29;99208.75;;;6.13;100.00
44457;BME280;30159;49.316;8.558;2024-03-02T01:59:56;99209.78;;;6.17;100.00
44457;BME280;30159;49.316;8.558;2024-03-02T02:02:23;99215.91;;;6.18;100.00
44457;BME280;30159;49.316;8.558;2024-03-02T02:04:49;99212.97;;;6.19;100.00
44457;BME280;30159;49.316;8.558;2024-03-02T02:07:16;99207.56;;;6.29;100.00
44457;BME280;30159;49.316;8.558;2024-03-02T02:09:44;99196.59;;;6.26;100.00
44457;BME280;30159;49.316;8.558;2024-03-02T02:12:11;99195.56;;;6.22;100.00
44457;BME280;30159;49.316;8.558;2024-03-02T02:14:37;99202.47;;;6.28;100.00
44457;BME280;30159;49.316;8.558;2024-03-02T02:17:05;99194.44;;;6.28;100.00
44457;BME280;30159;49.316;8.558;2024-03-02T02:19:31;99201.44;;;6.24;100.00
44457;BME280;30159;49.316;8.558;2024-03-02T02:21:59;99197.19;;;6.18;100.00
44457;BME280;30159;49.316;8.558;2024-03-02T02:24:25;99207.41;;;6.16;100.00
44457;BME280;30159;49.316;8.558;2024-03-02T02:26:52;99196.16;;;6.14;100.00
44457;BME280;30159;49.316;8.558;2024-03-02T02:29:18;99202.63;;;6.07;100.00
44457;BME280;30159;49.316;8.558;2024-03-02T02:31:45;99197.00;;;6.09;100.00
44457;BME280;30159;49.316;8.558;2024-03-02T02:34:12;99196.75;;;6.05;100.00
44457;BME280;30159;49.316;8.558;2024-03-02T02:36:40;99192.22;;;6.01;100.00
44457;BME280;30159;49.316;8.558;2024-03-02T02:39:10;99183.44;;;5.95;100.00
44457;BME280;30159;49.316;8.558;2024-03-02T02:41:37;99193.06;;;5.91;100.00
44457;BME280;30159;49.316;8.558;2024-03-02T02:44:05;99181.31;;;5.87;100.00
44457;BME280;30159;49.316;8.558;2024-03-02T02:46:31;99177.84;;;5.86;100.00
44457;BME280;30159;49.316;8.558;2024-03-02T02:48:58;99184.53;;;5.89;100.00
44457;BME280;30159;49.316;8.558;2024-03-02T02:51:24;99177.63;;;5.83;100.00
44457;BME280;30159;49.316;8.558;2024-03-02T02:53:51;99173.84;;;5.84;100.00
44457;BME280;30159;49.316;8.558;2024-03-02T02:56:19;99197.97;;;5.79;100.00
44457;BME280;30159;49.316;8.558;2024-03-02T02:58:46;99183.84;;;5.68;100.00
44457;BME280;30159;49.316;8.558;2024-03-02T03:01:12;99183.31;;;5.66;100.00
44457;BME280;30159;49.316;8.558;2024-03-02T03:03:39;99177.19;;;5.65;100.00
44457;BME280;30159;49.316;8.558;2024-03-02T03:06:06;99167.56;;;5.64;100.00
44457;BME280;30159;49.316;8.558;2024-03-02T03:08:32;99149.47;;;5.51;100.00
44457;BME280;30159;49.316;8.558;2024-03-02T03:10:59;99161.44;;;5.59;100.00
44457;BME280;30159;49.316;8.558;2024-03-02T03:13:27;99167.53;;;5.69;100.00
44457;BME280;30159;49.316;8.558;2024-03-02T03:15:54;99151.53;;;5.59;100.00
44457;BME280;30159;49.316;8.558;2024-03-02T03:18:20;99164.84;;;5.69;100.00
44457;BME280;30159;49.316;8.558;2024-03-02T03:20:47;99163.22;;;5.74;100.00
44457;BME280;30159;49.316;8.558;2024-03-02T03:23:14;99161.63;;;5.73;100.00
44457;BME280;30159;49.316;8.558;2024-03-02T03:25:41;99162.72;;;5.72;100.00
44457;BME280;30159;49.316;8.558;2024-03-02T03:28:08;99159.47;;;5.75;100.00
44457;BME280;30159;49.316;8.558;2024-03-02T03:30:37;99155.69;;;5.76;100.00
44457;BME280;30159;49.316;8.558;2024-03-02T03:33:04;99162.75;;;5.66;100.00
44457;BME280;30159;49.316;8.558;2024-03-02T03:35:31;99144.50;;;5.68;100.00
44457;BME280;30159;49.316;8.558;2024-03-02T03:37:58;99154.69;;;5.72;100.00
44457;BME280;30159;49.316;8.558;2024-03-02T03:40:25;99139.78;;;5.60;100.00
44457;BME280;30159;49.316;8.558;2024-03-02T03:42:52;99151.75;;;5.68;100.00
44457;BME280;30159;49.316;8.558;2024-03-02T03:45:19;99152.03;;;5.66;100.00
44457;BME280;30159;49.316;8.558;2024-03-02T03:47:47;99143.41;;;5.75;100.00
44457;BME280;30159;49.316;8.558;2024-03-02T03:50:14;99141.00;;;5.73;100.00
44457;BME280;30159;49.316;8.558;2024-03-02T03:52:41;99140.75;;;5.75;100.00
44457;BME280;30159;49.316;8.558;2024-03-02T03:55:09;99128.19;;;5.70;100.00
44457;BME280;30159;49.316;8.558;2024-03-02T03:57:35;99150.81;;;5.88;100.00
44457;BME280;30159;49.316;8.558;2024-03-02T04:00:03;99158.06;;;5.87;100.00
44457;BME280;30159;49.316;8.558;2024-03-02T04:02:30;99158.28;;;5.96;100.00
44457;BME280;30159;49.316;8.558;2024-03-02T04:04:58;99162.00;;;6.00;100.00
44457;BME280;30159;49.316;8.558;2024-03-02T04:07:24;99135.50;;;5.94;100.00
44457;BME280;30159;49.316;8.558;2024-03-02T04:09:51;99155.22;;;6.13;100.00
44457;BME280;30159;49.316;8.558;2024-03-02T04:12:17;99161.84;;;6.21;100.00
44457;BME280;30159;49.316;8.558;2024-03-02T04:14:44;99168.13;;;6.35;100.00
44457;BME280;30159;49.316;8.558;2024-03-02T04:17:11;99139.56;;;6.25;100.00
44457;BME280;30159;49.316;8.558;2024-03-02T04:19:38;99171.81;;;6.44;100.00
44457;BME280;30159;49.316;8.558;2024-03-02T04:22:06;99163.81;;;6.39;100.00
44457;BME280;30159;49.316;8.558;2024-03-02T04:24:33;99167.03;;;6.36;100.00
44457;BME280;30159;49.316;8.558;2024-03-02T04:26:59;99161.69;;;6.36;100.00
44457;BME280;30159;49.316;8.558;2024-03-02T04:29:27;99162.44;;;6.42;100.00
44457;BME280;30159;49.316;8.558;2024-03-02T04:31:54;99164.88;;;6.38;100.00
44457;BME280;30159;49.316;8.558;2024-03-02T04:34:20;99169.56;;;6.27;100.00
44457;BME280;30159;49.316;8.558;2024-03-02T04:36:47;99169.03;;;6.25;100.00
44457;BME280;30159;49.316;8.558;2024-03-02T04:39:15;99156.22;;;6.17;100.00
44457;BME280;30159;49.316;8.558;2024-03-02T04:41:42;99174.44;;;6.15;100.00
44457;BME280;30159;49.316;8.558;2024-03-02T04:44:08;99168.34;;;6.09;100.00
44457;BME280;30159;49.316;8.558;2024-03-02T04:46:35;99164.41;;;6.02;100.00
44457;BME280;30159;49.316;8.558;2024-03-02T04:49:02;99015.84;;;5.01;100.00
44457;BME280;30159;49.316;8.558;2024-03-02T04:51:28;99173.53;;;5.90;100.00
44457;BME280;30159;49.316;8.558;2024-03-02T04:53:55;99177.84;;;5.86;100.00
44457;BME280;30159;49.316;8.558;2024-03-02T04:56:23;99166.09;;;5.82;100.00
44457;BME280;30159;49.316;8.558;2024-03-02T04:59:03;99177.63;;;5.78;100.00
44457;BME280;30159;49.316;8.558;2024-03-02T05:01:30;99199.59;;;5.75;100.00
44457;BME280;30159;49.316;8.558;2024-03-02T05:03:56;99197.44;;;5.77;100.00
44457;BME280;30159;49.316;8.558;2024-03-02T05:06:23;99205.03;;;5.64;100.00
44457;BME280;30159;49.316;8.558;2024-03-02T05:08:49;99205.56;;;5.61;100.00
44457;BME280;30159;49.316;8.558;2024-03-02T05:11:16;99209.81;;;5.67;100.00
44457;BME280;30159;49.316;8.558;2024-03-02T05:13:58;99211.97;;;5.60;100.00
44457;BME280;30159;49.316;8.558;2024-03-02T05:16:24;99191.28;;;5.32;100.00
44457;BME280;30159;49.316;8.558;2024-03-02T05:18:51;99211.31;;;5.34;100.00
44457;BME280;30159;49.316;8.558;2024-03-02T05:21:17;99206.28;;;5.22;100.00
44457;BME280;30159;49.316;8.558;2024-03-02T05:23:44;99202.81;;;5.17;100.00
44457;BME280;30159;49.316;8.558;2024-03-02T05:26:11;99211.94;;;5.05;100.00
44457;BME280;30159;49.316;8.558;2024-03-02T05:28:38;99205.84;;;4.95;100.00
44457;BME280;30159;49.316;8.558;2024-03-02T05:31:06;99213.06;;;4.94;100.00
44457;BME280;30159;49.316;8.558;2024-03-02T05:33:32;99211.19;;;4.95;100.00
44457;BME280;30159;49.316;8.558;2024-03-02T05:36:03;99214.38;;;4.86;100.00
44457;BME280;30159;49.316;8.558;2024-03-02T05:38:29;99207.47;;;4.75;100.00
44457;BME280;30159;49.316;8.558;2024-03-02T05:40:56;99206.13;;;4.73;100.00
44457;BME280;30159;49.316;8.558;2024-03-02T05:43:23;99213.34;;;4.72;100.00
44457;BME280;30159;49.316;8.558;2024-03-02T05:45:49;99181.84;;;4.59;100.00
44457;BME280;30159;49.316;8.558;2024-03-02T05:48:17;99193.84;;;4.77;100.00
44457;BME280;30159;49.316;8.558;2024-03-02T05:50:44;99199.72;;;4.84;100.00
44457;BME280;30159;49.316;8.558;2024-03-02T05:53:10;99196.50;;;4.82;100.00
44457;BME280;30159;49.316;8.558;2024-03-02T05:55:37;99200.53;;;4.74;100.00
44457;BME280;30159;49.316;8.558;2024-03-02T05:58:04;99196.53;;;4.72;100.00
44457;BME280;30159;49.316;8.558;2024-03-02T06:00:47;99195.75;;;4.61;100.00
44457;BME280;30159;49.316;8.558;2024-03-02T06:03:14;99193.09;;;4.56;100.00
44457;BME280;30159;49.316;8.558;2024-03-02T06:05:42;99202.69;;;4.52;100.00
44457;BME280;30159;49.316;8.558;2024-03-02T06:08:09;99210.72;;;4.62;100.00
44457;BME280;30159;49.316;8.558;2024-03-02T06:10:35;99229.91;;;4.74;100.00
44457;BME280;30159;49.316;8.558;2024-03-02T06:13:02;99213.34;;;4.72;100.00
44457;BME280;30159;49.316;8.558;2024-03-02T06:15:29;99221.34;;;4.77;100.00
44457;BME280;30159;49.316;8.558;2024-03-02T06:17:55;99081.03;;;4.10;100.00
44457;BME280;30159;49.316;8.558;2024-03-02T06:20:22;99208.25;;;4.86;100.00
44457;BME280;30159;49.316;8.558;2024-03-02T06:22:50;99204.53;;;4.77;100.00
44457;BME280;30159;49.316;8.558;2024-03-02T06:25:17;99222.38;;;4.92;100.00
44457;BME280;30159;49.316;8.558;2024-03-02T06:27:43;99103.16;;;4.31;100.00
44457;BME280;30159;49.316;8.558;2024-03-02T06:30:11;99220.25;;;5.04;100.00
44457;BME280;30159;49.316;8.558;2024-03-02T06:32:38;99201.00;;;4.92;100.00
44457;BME280;30159;49.316;8.558;2024-03-02T06:35:05;99214.84;;;5.14;100.00
44457;BME280;30159;49.316;8.558;2024-03-02T06:37:35;99217.50;;;5.24;100.00
44457;BME280;30159;49.316;8.558;2024-03-02T06:40:04;99229.75;;;5.31;100.00
44457;BME280;30159;49.316;8.558;2024-03-02T06:42:32;99229.19;;;5.34;100.00
44457;BME280;30159;49.316;8.558;2024-03-02T06:44:59;99225.44;;;5.40;100.00
44457;BME280;30159;49.316;8.558;2024-03-02T06:47:26;99213.69;;;5.41;100.00
44457;BME280;30159;49.316;8.558;2024-03-02T06:49:52;99227.47;;;5.63;100.00
44457;BME280;30159;49.316;8.558;2024-03-02T06:52:19;99223.63;;;5.80;100.00
44457;BME280;30159;49.316;8.558;2024-03-02T06:54:46;99217.22;;;5.81;100.00
44457;BME280;30159;49.316;8.558;2024-03-02T06:57:14;99219.81;;;5.96;100.00
44457;BME280;30159;49.316;8.558;2024-03-02T06:59:42;99063.69;;;4.93;100.00
44457;BME280;30159;49.316;8.558;2024-03-02T07:02:08;99225.66;;;6.03;100.00
44457;BME280;30159;49.316;8.558;2024-03-02T07:04:35;99219.50;;;6.03;100.00
44457;BME280;30159;49.316;8.558;2024-03-02T07:07:02;99224.91;;;5.98;100.00
44457;BME280;30159;49.316;8.558;2024-03-02T07:09:28;99210.97;;;6.01;100.00
44457;BME280;30159;49.316;8.558;2024-03-02T07:11:55;99234.25;;;6.00;100.00
44457;BME280;30159;49.316;8.558;2024-03-02T07:14:23;99232.06;;;6.07;100.00
44457;BME280;30159;49.316;8.558;2024-03-02T07:17:09;99235.53;;;6.08;100.00
44457;BME280;30159;49.316;8.558;2024-03-02T07:19:37;99236.03;;;6.15;100.00
44457;BME280;30159;49.316;8.558;2024-03-02T07:22:06;99235.72;;;6.22;100.00
44457;BME280;30159;49.316;8.558;2024-03-02T07:24:39;99230.09;;;6.23;100.00
44457;BME280;30159;49.316;8.558;2024-03-02T07:27:06;99232.16;;;6.31;100.00
44457;BME280;30159;49.316;8.558;2024-03-02T07:29:34;99243.13;;;6.35;100.00
44457;BME280;30159;49.316;8.558;2024-03-02T07:32:00;99237.88;;;6.54;100.00
44457;BME280;30159;49.316;8.558;2024-03-02T07:34:27;99244.13;;;6.73;100.00
44457;BME280;30159;49.316;8.558;2024-03-02T07:36:54;99253.38;;;6.86;100.00
44457;BME280;30159;49.316;8.558;2024-03-02T07:39:20;99245.69;;;7.04;100.00
44457;BME280;30159;49.316;8.558;2024-03-02T07:41:47;99254.19;;;7.11;100.00
44457;BME280;30159;49.316;8.558;2024-03-02T07:44:14;99245.28;;;7.21;100.00
44457;BME280;30159;49.316;8.558;2024-03-02T07:46:43;99253.91;;;7.36;100.00
44457;BME280;30159;49.316;8.558;2024-03-02T07:49:09;99257.53;;;7.51;100.00
44457;BME280;30159;49.316;8.558;2024-03-02T07:51:36;99253.59;;;7.62;100.00
44457;BME280;30159;49.316;8.558;2024-03-02T07:54:03;99252.69;;;7.72;100.00
44457;BME280;30159;49.316;8.558;2024-03-02T07:56:30;99261.13;;;7.84;100.00
44457;BME280;30159;49.316;8.558;2024-03-02T07:58:57;99180.34;;;7.43;100.00
44457;BME280;30159;49.316;8.558;2024-03-02T08:01:26;99263.16;;;8.11;100.00
44457;BME280;30159;49.316;8.558;2024-03-02T08:03:54;99261.41;;;8.39;100.00
44457;BME280;30159;49.316;8.558;2024-03-02T08:06:23;99265.09;;;8.62;100.00
44457;BME280;30159;49.316;8.558;2024-03-02T08:08:53;99238.22;;;8.62;100.00
44457;BME280;30159;49.316;8.558;2024-03-02T08:11:19;99262.97;;;8.92;100.00
44457;BME280;30159;49.316;8.558;2024-03-02T08:13:46;99254.34;;;9.09;100.00
44457;BME280;30159;49.316;8.558;2024-03-02T08:16:12;99256.81;;;9.61;100.00
44457;BME280;30159;49.316;8.558;2024-03-02T08:18:39;99247.28;;;9.91;100.00
44457;BME280;30159;49.316;8.558;2024-03-02T08:21:07;99258.94;;;10.37;100.00
44457;BME280;30159;49.316;8.558;2024-03-02T08:23:34;99259.03;;;10.76;100.00
44457;BME280;30159;49.316;8.558;2024-03-02T08:26:01;99251.00;;;11.16;100.00
44457;BME280;30159;49.316;8.558;2024-03-02T08:28:28;99257.88;;;11.31;98.05
44457;BME280;30159;49.316;8.558;2024-03-02T08:30:55;99257.78;;;11.45;96.34
44457;BME280;30159;49.316;8.558;2024-03-02T08:33:22;99257.06;;;11.79;95.72
44457;BME280;30159;49.316;8.558;2024-03-02T08:35:48;99258.41;;;12.08;93.20
44457;BME280;30159;49.316;8.558;2024-03-02T08:38:16;99251.41;;;12.33;89.72
44457;BME280;30159;49.316;8.558;2024-03-02T08:40:42;99255.16;;;12.67;88.73
44457;BME280;30159;49.316;8.558;2024-03-02T08:43:09;99248.59;;;12.85;84.69
44457;BME280;30159;49.316;8.558;2024-03-02T08:45:36;99243.13;;;12.47;83.02
44457;BME280;30159;49.316;8.558;2024-03-02T08:48:03;99258.06;;;12.27;83.33
44457;BME280;30159;49.316;8.558;2024-03-02T08:50:30;99256.31;;;11.96;83.85
44457;BME280;30159;49.316;8.558;2024-03-02T08:52:56;99250.28;;;11.99;86.31
44457;BME280;30159;49.316;8.558;2024-03-02T08:55:24;99255.34;;;12.10;86.25
44457;BME280;30159;49.316;8.558;2024-03-02T08:57:51;99250.25;;;11.91;85.25
44457;BME280;30159;49.316;8.558;2024-03-02T09:00:18;99245.53;;;12.05;86.15
44457;BME280;30159;49.316;8.558;2024-03-02T09:02:45;99249.75;;;11.80;86.20
44457;BME280;30159;49.316;8.558;2024-03-02T09:05:11;99241.88;;;11.44;86.23
44457;BME280;30159;49.316;8.558;2024-03-02T09:07:38;99237.75;;;11.37;87.60
44457;BME280;30159;49.316;8.558;2024-03-02T09:10:05;99244.19;;;11.28;87.91
44457;BME280;30159;49.316;8.558;2024-03-02T09:12:34;99227.31;;;11.13;88.08
44457;BME280;30159;49.316;8.558;2024-03-02T09:15:01;99228.31;;;11.17;87.72
44457;BME280;30159;49.316;8.558;2024-03-02T09:17:28;99242.31;;;11.37;87.58
44457;BME280;30159;49.316;8.558;2024-03-02T09:19:55;99237.91;;;11.41;88.45
44457;BME280;30159;49.316;8.558;2024-03-02T09:22:22;99215.16;;;11.25;86.45
44457;BME280;30159;49.316;8.558;2024-03-02T09:24:48;99239.47;;;11.42;87.51
44457;BME280;30159;49.316;8.558;2024-03-02T09:27:15;99236.97;;;11.46;87.61
44457;BME280;30159;49.316;8.558;2024-03-02T09:29:43;99239.63;;;11.37;87.03
44457;BME280;30159;49.316;8.558;2024-03-02T09:32:13;99242.81;;;11.39;85.56
44457;BME280;30159;49.316;8.558;2024-03-02T09:34:39;99240.75;;;11.36;86.74
44457;BME280;30159;49.316;8.558;2024-03-02T09:37:06;99216.13;;;11.29;85.96
44457;BME280;30159;49.316;8.558;2024-03-02T09:39:33;99212.03;;;11.40;86.56
44457;BME280;30159;49.316;8.558;2024-03-02T09:42:00;99227.28;;;11.45;86.54
44457;BME280;30159;49.316;8.558;2024-03-02T09:44:27;99241.34;;;11.24;87.91
44457;BME280;30159;49.316;8.558;2024-03-02T09:46:55;99234.31;;;11.14;89.60
44457;BME280;30159;49.316;8.558;2024-03-02T09:49:22;99230.38;;;11.21;91.09
44457;BME280;30159;49.316;8.558;2024-03-02T09:51:49;99226.69;;;11.08;90.06
44457;BME280;30159;49.316;8.558;2024-03-02T09:54:16;99228.41;;;11.04;89.14
44457;BME280;30159;49.316;8.558;2024-03-02T09:56:43;99224.13;;;11.11;89.72
44457;BME280;30159;49.316;8.558;2024-03-02T09:59:10;99222.59;;;11.19;90.20
44457;BME280;30159;49.316;8.558;2024-03-02T10:01:38;99219.19;;;11.45;89.39
44457;BME280;30159;49.316;8.558;2024-03-02T10:04:06;99219.59;;;11.29;86.90
44457;BME280;30159;49.316;8.558;2024-03-02T10:06:33;99216.44;;;11.36;87.54
44457;BME280;30159;49.316;8.558;2024-03-02T10:09:00;99192.75;;;11.24;87.04
44457;BME280;30159;49.316;8.558;2024-03-02T10:11:28;99211.84;;;11.36;86.40
44457;BME280;30159;49.316;8.558;2024-03-02T10:14:06;99220.94;;;11.49;85.65
44457;BME280;30159;49.316;8.558;2024-03-02T10:16:37;99223.03;;;11.70;85.71
44457;BME280;30159;49.316;8.558;2024-03-02T10:19:18;99214.81;;;11.92;84.86
44457;BME280;30159;49.316;8.558;2024-03-02T10:21:46;99175.69;;;11.81;84.77
44457;BME280;30159;49.316;8.558;2024-03-02T10:24:13;99210.38;;;12.14;83.81
44457;BME280;30159;49.316;8.558;2024-03-02T10:26:40;99216.72;;;12.27;83.30
44457;BME280;30159;49.316;8.558;2024-03-02T10:29:07;99213.97;;;12.53;82.04
44457;BME280;30159;49.316;8.558;2024-03-02T10:31:36;99217.31;;;12.58;81.64
44457;BME280;30159;49.316;8.558;2024-03-02T10:34:03;99210.59;;;12.73;81.03
44457;BME280;30159;49.316;8.558;2024-03-02T10:36:32;99206.94;;;12.78;81.03
44457;BME280;30159;49.316;8.558;2024-03-02T10:38:58;99206.88;;;12.86;79.60
44457;BME280;30159;49.316;8.558;2024-03-02T10:41:26;99202.81;;;12.63;80.86
44457;BME280;30159;49.316;8.558;2024-03-02T10:43:53;99204.44;;;12.47;80.52
44457;BME280;30159;49.316;8.558;2024-03-02T10:46:27;99199.31;;;12.62;80.92
44457;BME280;30159;49.316;8.558;2024-03-02T10:48:54;99203.38;;;12.86;80.80
44457;BME280;30159;49.316;8.558;2024-03-02T10:51:21;99199.31;;;12.71;79.35
44457;BME280;30159;49.316;8.558;2024-03-02T10:53:49;99200.25;;;12.75;78.19
44457;BME280;30159;49.316;8.558;2024-03-02T10:56:22;99186.03;;;12.87;79.13
44457;BME280;30159;49.316;8.558;2024-03-02T10:58:55;99166.13;;;12.92;78.08
44457;BME280;30159;49.316;8.558;2024-03-02T11:01:27;99163.66;;;12.69;78.52
44457;BME280;30159;49.316;8.558;2024-03-02T11:03:54;99185.09;;;12.83;78.75
44457;BME280;30159;49.316;8.558;2024-03-02T11:06:23;99182.84;;;12.94;78.39
44457;BME280;30159;49.316;8.558;2024-03-02T11:08:55;99180.78;;;13.20;79.27
44457;BME280;30159;49.316;8.558;2024-03-02T11:11:30;99174.66;;;13.41;79.03
44457;BME280;30159;49.316;8.558;2024-03-02T11:14:01;99158.13;;;13.34;76.41
44457;BME280;30159;49.316;8.558;2024-03-02T11:16:34;99172.72;;;13.41;74.53
44457;BME280;30159;49.316;8.558;2024-03-02T11:19:04;99175.88;;;13.52;75.08
44457;BME280;30159;49.316;8.558;2024-03-02T11:21:32;99172.53;;;13.46;74.31
44457;BME280;30159;49.316;8.558;2024-03-02T11:24:00;99162.31;;;13.52;74.92
44457;BME280;30159;49.316;8.558;2024-03-02T11:26:27;99155.31;;;13.72;76.08
44457;BME280;30159;49.316;8.558;2024-03-02T11:28:54;99154.91;;;13.61;76.28
44457;BME280;30159;49.316;8.558;2024-03-02T11:31:22;99148.94;;;13.47;73.17
44457;BME280;30159;49.316;8.558;2024-03-02T11:33:48;99142.22;;;13.53;75.07
44457;BME280;30159;49.316;8.558;2024-03-02T11:36:15;99145.50;;;13.80;73.85
44457;BME280;30159;49.316;8.558;2024-03-02T11:38:43;99138.34;;;13.96;73.01
44457;BME280;30159;49.316;8.558;2024-03-02T11:41:12;99123.84;;;14.13;71.27
44457;BME280;30159;49.316;8.558;2024-03-02T11:43:39;99130.38;;;14.45;70.98
44457;BME280;30159;49.316;8.558;2024-03-02T11:46:06;99119.81;;;14.65;69.75
44457;BME280;30159;49.316;8.558;2024-03-02T11:48:35;99104.09;;;14.70;68.22
44457;BME280;30159;49.316;8.558;2024-03-02T11:51:02;99093.91;;;14.67;69.31
44457;BME280;30159;49.316;8.558;2024-03-02T11:53:30;99112.25;;;14.95;67.65
44457;BME280;30159;49.316;8.558;2024-03-02T11:55:58;99073.66;;;14.65;67.66
44457;BME280;30159;49.316;8.558;2024-03-02T11:58:28;99106.03;;;14.94;68.88
44457;BME280;30159;49.316;8.558;2024-03-02T12:00:55;99106.81;;;14.95;68.57
44457;BME280;30159;49.316;8.558;2024-03-02T12:03:23;99108.59;;;15.03;68.11
44457;BME280;30159;49.316;8.558;2024-03-02T12:05:51;99093.34;;;14.86;68.32
44457;BME280;30159;49.316;8.558;2024-03-02T12:08:19;99067.41;;;14.52;67.95
44457;BME280;30159;49.316;8.558;2024-03-02T12:10:56;99091.97;;;14.68;67.29
44457;BME280;30159;49.316;8.558;2024-03-02T12:13:23;99095.94;;;14.58;66.54
44457;BME280;30159;49.316;8.558;2024-03-02T12:15:53;99088.72;;;14.74;66.75
44457;BME280;30159;49.316;8.558;2024-03-02T12:18:20;99078.41;;;14.68;68.01
44457;BME280;30159;49.316;8.558;2024-03-02T12:20:48;99085.44;;;14.81;68.18
44457;BME280;30159;49.316;8.558;2024-03-02T12:23:15;99088.81;;;14.90;68.70
44457;BME280;30159;49.316;8.558;2024-03-02T12:25:42;99090.84;;;14.81;67.79
44457;BME280;30159;49.316;8.558;2024-03-02T12:28:09;99087.81;;;14.83;67.32
44457;BME280;30159;49.316;8.558;2024-03-02T12:30:36;99078.88;;;14.70;67.84
44457;BME280;30159;49.316;8.558;2024-03-02T12:33:04;99080.56;;;14.87;68.19
44457;BME280;30159;49.316;8.558;2024-03-02T12:35:31;99070.81;;;14.61;68.94
44457;BME280;30159;49.316;8.558;2024-03-02T12:37:58;99078.19;;;14.73;69.44
44457;BME280;30159;49.316;8.558;2024-03-02T12:40:24;99072.50;;;14.53;69.83
44457;BME280;30159;49.316;8.558;2024-03-02T12:42:52;99064.97;;;14.59;70.59
44457;BME280;30159;49.316;8.558;2024-03-02T12:45:20;99057.03;;;14.54;70.50
44457;BME280;30159;49.316;8.558;2024-03-02T12:47:49;99056.47;;;14.61;70.52
44457;BME280;30159;49.316;8.558;2024-03-02T12:50:17;99046.84;;;14.39;70.32
44457;BME280;30159;49.316;8.558;2024-03-02T12:52:50;99048.75;;;14.50;70.18
44457;BME280;30159;49.316;8.558;2024-03-02T12:55:17;99040.78;;;14.66;70.17
44457;BME280;30159;49.316;8.558;2024-03-02T12:57:44;99047.16;;;14.99;70.59
44457;BME280;30159;49.316;8.558;2024-03-02T13:00:11;99042.41;;;15.08;69.50
44457;BME280;30159;49.316;8.558;2024-03-02T13:02:40;99038.28;;;15.26;72.02